<?xml version="1.0" encoding="UTF-8" standalone="no" ?>
<gpx xmlns="http://www.topografix.com/GPX/1/1" xmlns:xsi="http://www.w3.org/2001/XMLSchema-instance" xsi:schemaLocation="http://www.topografix.com/GPX/1/1 http://www.topografix.com/GPX/1/1/gpx.xsd" version="1.1" creator="VisuGPX - https://www.visugpx.com">
  <metadata>
    <name> « C?ur d?Honoré » </name>
    <desc><![CDATA[Bassins et retenues d?eau du vallon du « C?ur d?Honoré »  ]]></desc>
  </metadata>
  <trk>
    <name><![CDATA[ « C?ur d?Honoré » _1]]></name>
    <trkseg>
      <trkpt lat="43.17886" lon="5.58131">
        <ele>238</ele>
        <time>2020-05-06T17:04:55Z</time>
      </trkpt>
      <trkpt lat="43.17889" lon="5.58135">
        <ele>237</ele>
        <time>2020-05-06T17:05:15Z</time>
      </trkpt>
      <trkpt lat="43.17885" lon="5.5814">
        <ele>237</ele>
        <time>2020-05-06T17:05:23Z</time>
      </trkpt>
      <trkpt lat="43.1788" lon="5.58145">
        <ele>237</ele>
        <time>2020-05-06T17:05:29Z</time>
      </trkpt>
      <trkpt lat="43.17876" lon="5.58152">
        <ele>238</ele>
        <time>2020-05-06T17:05:35Z</time>
      </trkpt>
      <trkpt lat="43.17874" lon="5.58157">
        <ele>238</ele>
        <time>2020-05-06T17:05:41Z</time>
      </trkpt>
      <trkpt lat="43.17871" lon="5.58162">
        <ele>238</ele>
        <time>2020-05-06T17:05:49Z</time>
      </trkpt>
      <trkpt lat="43.17868" lon="5.58168">
        <ele>228</ele>
        <time>2020-05-06T17:05:55Z</time>
      </trkpt>
      <trkpt lat="43.17865" lon="5.58174">
        <ele>228</ele>
        <time>2020-05-06T17:06:01Z</time>
      </trkpt>
      <trkpt lat="43.17864" lon="5.58181">
        <ele>228</ele>
        <time>2020-05-06T17:06:07Z</time>
      </trkpt>
      <trkpt lat="43.17864" lon="5.58188">
        <ele>227</ele>
        <time>2020-05-06T17:06:13Z</time>
      </trkpt>
      <trkpt lat="43.17865" lon="5.58196">
        <ele>226</ele>
        <time>2020-05-06T17:06:19Z</time>
      </trkpt>
      <trkpt lat="43.17865" lon="5.58204">
        <ele>225</ele>
        <time>2020-05-06T17:06:25Z</time>
      </trkpt>
      <trkpt lat="43.17866" lon="5.58212">
        <ele>224</ele>
        <time>2020-05-06T17:06:31Z</time>
      </trkpt>
      <trkpt lat="43.17866" lon="5.5822">
        <ele>223</ele>
        <time>2020-05-06T17:06:37Z</time>
      </trkpt>
      <trkpt lat="43.17866" lon="5.58228">
        <ele>223</ele>
        <time>2020-05-06T17:06:43Z</time>
      </trkpt>
      <trkpt lat="43.17865" lon="5.58235">
        <ele>223</ele>
        <time>2020-05-06T17:06:49Z</time>
      </trkpt>
      <trkpt lat="43.17864" lon="5.58241">
        <ele>223</ele>
        <time>2020-05-06T17:06:59Z</time>
      </trkpt>
      <trkpt lat="43.17865" lon="5.58248">
        <ele>222</ele>
        <time>2020-05-06T17:07:05Z</time>
      </trkpt>
      <trkpt lat="43.17866" lon="5.58255">
        <ele>211</ele>
        <time>2020-05-06T17:07:11Z</time>
      </trkpt>
      <trkpt lat="43.17867" lon="5.58261">
        <ele>211</ele>
        <time>2020-05-06T17:07:17Z</time>
      </trkpt>
      <trkpt lat="43.17868" lon="5.58268">
        <ele>210</ele>
        <time>2020-05-06T17:07:23Z</time>
      </trkpt>
      <trkpt lat="43.17873" lon="5.58264">
        <ele>209</ele>
        <time>2020-05-06T17:07:45Z</time>
      </trkpt>
      <trkpt lat="43.17875" lon="5.58256">
        <ele>208</ele>
        <time>2020-05-06T17:07:51Z</time>
      </trkpt>
      <trkpt lat="43.17878" lon="5.5825">
        <ele>218</ele>
        <time>2020-05-06T17:07:57Z</time>
      </trkpt>
      <trkpt lat="43.17879" lon="5.58243">
        <ele>218</ele>
        <time>2020-05-06T17:08:03Z</time>
      </trkpt>
      <trkpt lat="43.1788" lon="5.58251">
        <ele>207</ele>
        <time>2020-05-06T17:08:15Z</time>
      </trkpt>
      <trkpt lat="43.17882" lon="5.58258">
        <ele>206</ele>
        <time>2020-05-06T17:08:21Z</time>
      </trkpt>
      <trkpt lat="43.17883" lon="5.58265">
        <ele>206</ele>
        <time>2020-05-06T17:08:27Z</time>
      </trkpt>
      <trkpt lat="43.17884" lon="5.58273">
        <ele>205</ele>
        <time>2020-05-06T17:08:41Z</time>
      </trkpt>
      <trkpt lat="43.17885" lon="5.58279">
        <ele>205</ele>
        <time>2020-05-06T17:08:49Z</time>
      </trkpt>
      <trkpt lat="43.17887" lon="5.58286">
        <ele>204</ele>
        <time>2020-05-06T17:08:57Z</time>
      </trkpt>
      <trkpt lat="43.17889" lon="5.58293">
        <ele>203</ele>
        <time>2020-05-06T17:09:03Z</time>
      </trkpt>
      <trkpt lat="43.1789" lon="5.58301">
        <ele>202</ele>
        <time>2020-05-06T17:09:11Z</time>
      </trkpt>
      <trkpt lat="43.1789" lon="5.58308">
        <ele>201</ele>
        <time>2020-05-06T17:09:17Z</time>
      </trkpt>
      <trkpt lat="43.1789" lon="5.58315">
        <ele>200</ele>
        <time>2020-05-06T17:09:23Z</time>
      </trkpt>
      <trkpt lat="43.1789" lon="5.58321">
        <ele>199</ele>
        <time>2020-05-06T17:09:31Z</time>
      </trkpt>
      <trkpt lat="43.1789" lon="5.58328">
        <ele>198</ele>
        <time>2020-05-06T17:09:41Z</time>
      </trkpt>
      <trkpt lat="43.17888" lon="5.58335">
        <ele>188</ele>
        <time>2020-05-06T17:09:51Z</time>
      </trkpt>
      <trkpt lat="43.17888" lon="5.58342">
        <ele>187</ele>
        <time>2020-05-06T17:09:57Z</time>
      </trkpt>
      <trkpt lat="43.17887" lon="5.58349">
        <ele>187</ele>
        <time>2020-05-06T17:10:03Z</time>
      </trkpt>
      <trkpt lat="43.17887" lon="5.58355">
        <ele>187</ele>
        <time>2020-05-06T17:10:09Z</time>
      </trkpt>
      <trkpt lat="43.17888" lon="5.58362">
        <ele>186</ele>
        <time>2020-05-06T17:10:17Z</time>
      </trkpt>
      <trkpt lat="43.17888" lon="5.58368">
        <ele>186</ele>
        <time>2020-05-06T17:10:23Z</time>
      </trkpt>
      <trkpt lat="43.17887" lon="5.58375">
        <ele>185</ele>
        <time>2020-05-06T17:10:29Z</time>
      </trkpt>
      <trkpt lat="43.17887" lon="5.58383">
        <ele>184</ele>
        <time>2020-05-06T17:10:37Z</time>
      </trkpt>
      <trkpt lat="43.17885" lon="5.5839">
        <ele>183</ele>
        <time>2020-05-06T17:10:45Z</time>
      </trkpt>
      <trkpt lat="43.17881" lon="5.58396">
        <ele>183</ele>
        <time>2020-05-06T17:10:51Z</time>
      </trkpt>
      <trkpt lat="43.17877" lon="5.584">
        <ele>183</ele>
        <time>2020-05-06T17:10:57Z</time>
      </trkpt>
      <trkpt lat="43.17872" lon="5.58404">
        <ele>184</ele>
        <time>2020-05-06T17:11:03Z</time>
      </trkpt>
      <trkpt lat="43.17866" lon="5.58406">
        <ele>184</ele>
        <time>2020-05-06T17:11:09Z</time>
      </trkpt>
      <trkpt lat="43.17861" lon="5.58408">
        <ele>185</ele>
        <time>2020-05-06T17:11:15Z</time>
      </trkpt>
      <trkpt lat="43.17856" lon="5.5841">
        <ele>185</ele>
        <time>2020-05-06T17:11:21Z</time>
      </trkpt>
      <trkpt lat="43.17852" lon="5.58413">
        <ele>185</ele>
        <time>2020-05-06T17:11:27Z</time>
      </trkpt>
      <trkpt lat="43.17847" lon="5.58414">
        <ele>185</ele>
        <time>2020-05-06T17:11:33Z</time>
      </trkpt>
      <trkpt lat="43.17843" lon="5.58415">
        <ele>185</ele>
        <time>2020-05-06T17:11:39Z</time>
      </trkpt>
      <trkpt lat="43.17838" lon="5.58416">
        <ele>185</ele>
        <time>2020-05-06T17:11:45Z</time>
      </trkpt>
      <trkpt lat="43.17833" lon="5.58415">
        <ele>186</ele>
        <time>2020-05-06T17:11:49Z</time>
      </trkpt>
      <trkpt lat="43.17828" lon="5.58415">
        <ele>191</ele>
        <time>2020-05-06T17:11:55Z</time>
      </trkpt>
      <trkpt lat="43.17822" lon="5.58417">
        <ele>190</ele>
        <time>2020-05-06T17:12:05Z</time>
      </trkpt>
      <trkpt lat="43.17819" lon="5.58421">
        <ele>191</ele>
        <time>2020-05-06T17:12:11Z</time>
      </trkpt>
      <trkpt lat="43.17816" lon="5.58429">
        <ele>192</ele>
        <time>2020-05-06T17:12:19Z</time>
      </trkpt>
      <trkpt lat="43.17815" lon="5.58437">
        <ele>193</ele>
        <time>2020-05-06T17:12:25Z</time>
      </trkpt>
      <trkpt lat="43.17815" lon="5.58446">
        <ele>193</ele>
        <time>2020-05-06T17:12:31Z</time>
      </trkpt>
      <trkpt lat="43.17814" lon="5.58452">
        <ele>193</ele>
        <time>2020-05-06T17:12:35Z</time>
      </trkpt>
      <trkpt lat="43.17812" lon="5.5846">
        <ele>193</ele>
        <time>2020-05-06T17:12:41Z</time>
      </trkpt>
      <trkpt lat="43.17811" lon="5.58467">
        <ele>192</ele>
        <time>2020-05-06T17:12:47Z</time>
      </trkpt>
      <trkpt lat="43.17811" lon="5.58474">
        <ele>191</ele>
        <time>2020-05-06T17:12:53Z</time>
      </trkpt>
      <trkpt lat="43.17813" lon="5.58482">
        <ele>189</ele>
        <time>2020-05-06T17:12:59Z</time>
      </trkpt>
      <trkpt lat="43.17815" lon="5.5849">
        <ele>187</ele>
        <time>2020-05-06T17:13:05Z</time>
      </trkpt>
      <trkpt lat="43.17817" lon="5.58497">
        <ele>185</ele>
        <time>2020-05-06T17:13:11Z</time>
      </trkpt>
      <trkpt lat="43.17819" lon="5.58502">
        <ele>181</ele>
        <time>2020-05-06T17:13:17Z</time>
      </trkpt>
      <trkpt lat="43.17823" lon="5.58507">
        <ele>180</ele>
        <time>2020-05-06T17:13:27Z</time>
      </trkpt>
      <trkpt lat="43.17826" lon="5.58512">
        <ele>181</ele>
        <time>2020-05-06T17:13:33Z</time>
      </trkpt>
      <trkpt lat="43.17829" lon="5.58518">
        <ele>181</ele>
        <time>2020-05-06T17:13:39Z</time>
      </trkpt>
      <trkpt lat="43.17832" lon="5.58523">
        <ele>182</ele>
        <time>2020-05-06T17:13:45Z</time>
      </trkpt>
      <trkpt lat="43.17835" lon="5.58529">
        <ele>166</ele>
        <time>2020-05-06T17:13:51Z</time>
      </trkpt>
      <trkpt lat="43.17837" lon="5.58536">
        <ele>166</ele>
        <time>2020-05-06T17:13:57Z</time>
      </trkpt>
      <trkpt lat="43.17839" lon="5.58543">
        <ele>166</ele>
        <time>2020-05-06T17:14:03Z</time>
      </trkpt>
      <trkpt lat="43.17842" lon="5.58549">
        <ele>166</ele>
        <time>2020-05-06T17:14:09Z</time>
      </trkpt>
      <trkpt lat="43.17846" lon="5.58556">
        <ele>166</ele>
        <time>2020-05-06T17:14:15Z</time>
      </trkpt>
      <trkpt lat="43.1785" lon="5.58562">
        <ele>166</ele>
        <time>2020-05-06T17:14:23Z</time>
      </trkpt>
      <trkpt lat="43.17853" lon="5.58567">
        <ele>166</ele>
        <time>2020-05-06T17:14:37Z</time>
      </trkpt>
      <trkpt lat="43.17856" lon="5.58573">
        <ele>165</ele>
        <time>2020-05-06T17:14:43Z</time>
      </trkpt>
      <trkpt lat="43.17859" lon="5.58578">
        <ele>165</ele>
        <time>2020-05-06T17:14:49Z</time>
      </trkpt>
      <trkpt lat="43.17862" lon="5.58584">
        <ele>162</ele>
        <time>2020-05-06T17:14:55Z</time>
      </trkpt>
      <trkpt lat="43.17864" lon="5.58591">
        <ele>161</ele>
        <time>2020-05-06T17:15:01Z</time>
      </trkpt>
      <trkpt lat="43.17866" lon="5.58598">
        <ele>160</ele>
        <time>2020-05-06T17:15:07Z</time>
      </trkpt>
      <trkpt lat="43.17867" lon="5.58605">
        <ele>160</ele>
        <time>2020-05-06T17:15:13Z</time>
      </trkpt>
      <trkpt lat="43.17867" lon="5.58611">
        <ele>159</ele>
        <time>2020-05-06T17:15:19Z</time>
      </trkpt>
      <trkpt lat="43.17868" lon="5.58618">
        <ele>159</ele>
        <time>2020-05-06T17:15:25Z</time>
      </trkpt>
      <trkpt lat="43.17869" lon="5.58625">
        <ele>158</ele>
        <time>2020-05-06T17:15:31Z</time>
      </trkpt>
      <trkpt lat="43.17871" lon="5.58632">
        <ele>158</ele>
        <time>2020-05-06T17:15:37Z</time>
      </trkpt>
      <trkpt lat="43.17873" lon="5.58638">
        <ele>157</ele>
        <time>2020-05-06T17:15:43Z</time>
      </trkpt>
      <trkpt lat="43.17875" lon="5.58644">
        <ele>157</ele>
        <time>2020-05-06T17:15:49Z</time>
      </trkpt>
      <trkpt lat="43.17878" lon="5.5865">
        <ele>156</ele>
        <time>2020-05-06T17:15:59Z</time>
      </trkpt>
      <trkpt lat="43.17881" lon="5.58657">
        <ele>155</ele>
        <time>2020-05-06T17:16:09Z</time>
      </trkpt>
      <trkpt lat="43.17884" lon="5.58664">
        <ele>154</ele>
        <time>2020-05-06T17:16:17Z</time>
      </trkpt>
      <trkpt lat="43.17885" lon="5.58671">
        <ele>149</ele>
        <time>2020-05-06T17:16:25Z</time>
      </trkpt>
      <trkpt lat="43.17887" lon="5.58677">
        <ele>149</ele>
        <time>2020-05-06T17:16:33Z</time>
      </trkpt>
      <trkpt lat="43.17888" lon="5.58684">
        <ele>149</ele>
        <time>2020-05-06T17:16:41Z</time>
      </trkpt>
      <trkpt lat="43.17889" lon="5.58692">
        <ele>148</ele>
        <time>2020-05-06T17:16:49Z</time>
      </trkpt>
      <trkpt lat="43.17889" lon="5.58698">
        <ele>148</ele>
        <time>2020-05-06T17:16:55Z</time>
      </trkpt>
      <trkpt lat="43.1789" lon="5.58706">
        <ele>148</ele>
        <time>2020-05-06T17:17:03Z</time>
      </trkpt>
      <trkpt lat="43.17892" lon="5.58712">
        <ele>147</ele>
        <time>2020-05-06T17:17:09Z</time>
      </trkpt>
      <trkpt lat="43.17894" lon="5.58719">
        <ele>146</ele>
        <time>2020-05-06T17:17:17Z</time>
      </trkpt>
      <trkpt lat="43.17895" lon="5.58725">
        <ele>145</ele>
        <time>2020-05-06T17:17:25Z</time>
      </trkpt>
      <trkpt lat="43.17896" lon="5.58732">
        <ele>144</ele>
        <time>2020-05-06T17:17:31Z</time>
      </trkpt>
      <trkpt lat="43.17897" lon="5.58738">
        <ele>143</ele>
        <time>2020-05-06T17:17:37Z</time>
      </trkpt>
      <trkpt lat="43.17898" lon="5.58744">
        <ele>142</ele>
        <time>2020-05-06T17:17:43Z</time>
      </trkpt>
      <trkpt lat="43.179" lon="5.5875">
        <ele>137</ele>
        <time>2020-05-06T17:17:49Z</time>
      </trkpt>
      <trkpt lat="43.17903" lon="5.58757">
        <ele>137</ele>
        <time>2020-05-06T17:17:57Z</time>
      </trkpt>
      <trkpt lat="43.17904" lon="5.58764">
        <ele>137</ele>
        <time>2020-05-06T17:18:03Z</time>
      </trkpt>
      <trkpt lat="43.17906" lon="5.5877">
        <ele>138</ele>
        <time>2020-05-06T17:18:11Z</time>
      </trkpt>
      <trkpt lat="43.17908" lon="5.58777">
        <ele>138</ele>
        <time>2020-05-06T17:18:19Z</time>
      </trkpt>
      <trkpt lat="43.1791" lon="5.58783">
        <ele>138</ele>
        <time>2020-05-06T17:18:25Z</time>
      </trkpt>
      <trkpt lat="43.17912" lon="5.58789">
        <ele>138</ele>
        <time>2020-05-06T17:18:31Z</time>
      </trkpt>
      <trkpt lat="43.17914" lon="5.58795">
        <ele>138</ele>
        <time>2020-05-06T17:18:37Z</time>
      </trkpt>
      <trkpt lat="43.17916" lon="5.58801">
        <ele>137</ele>
        <time>2020-05-06T17:18:43Z</time>
      </trkpt>
      <trkpt lat="43.17918" lon="5.58807">
        <ele>127</ele>
        <time>2020-05-06T17:18:49Z</time>
      </trkpt>
      <trkpt lat="43.1792" lon="5.58814">
        <ele>127</ele>
        <time>2020-05-06T17:18:57Z</time>
      </trkpt>
      <trkpt lat="43.17921" lon="5.5882">
        <ele>128</ele>
        <time>2020-05-06T17:19:03Z</time>
      </trkpt>
      <trkpt lat="43.17922" lon="5.58827">
        <ele>128</ele>
        <time>2020-05-06T17:19:09Z</time>
      </trkpt>
      <trkpt lat="43.17924" lon="5.58833">
        <ele>129</ele>
        <time>2020-05-06T17:19:15Z</time>
      </trkpt>
      <trkpt lat="43.17926" lon="5.58839">
        <ele>126</ele>
        <time>2020-05-06T17:19:21Z</time>
      </trkpt>
      <trkpt lat="43.17929" lon="5.58846">
        <ele>124</ele>
        <time>2020-05-06T17:19:27Z</time>
      </trkpt>
      <trkpt lat="43.17931" lon="5.58853">
        <ele>123</ele>
        <time>2020-05-06T17:19:33Z</time>
      </trkpt>
      <trkpt lat="43.17932" lon="5.58859">
        <ele>122</ele>
        <time>2020-05-06T17:19:39Z</time>
      </trkpt>
      <trkpt lat="43.17934" lon="5.58867">
        <ele>121</ele>
        <time>2020-05-06T17:19:47Z</time>
      </trkpt>
      <trkpt lat="43.17935" lon="5.58873">
        <ele>120</ele>
        <time>2020-05-06T17:19:53Z</time>
      </trkpt>
      <trkpt lat="43.17937" lon="5.5888">
        <ele>120</ele>
        <time>2020-05-06T17:20:01Z</time>
      </trkpt>
      <trkpt lat="43.17938" lon="5.58887">
        <ele>120</ele>
        <time>2020-05-06T17:20:07Z</time>
      </trkpt>
      <trkpt lat="43.17937" lon="5.58894">
        <ele>119</ele>
        <time>2020-05-06T17:20:13Z</time>
      </trkpt>
      <trkpt lat="43.1794" lon="5.589">
        <ele>119</ele>
        <time>2020-05-06T17:20:31Z</time>
      </trkpt>
      <trkpt lat="43.17942" lon="5.58906">
        <ele>119</ele>
        <time>2020-05-06T17:20:37Z</time>
      </trkpt>
      <trkpt lat="43.17942" lon="5.58913">
        <ele>119</ele>
        <time>2020-05-06T17:20:43Z</time>
      </trkpt>
      <trkpt lat="43.17944" lon="5.58921">
        <ele>114</ele>
        <time>2020-05-06T17:20:51Z</time>
      </trkpt>
      <trkpt lat="43.17946" lon="5.58928">
        <ele>114</ele>
        <time>2020-05-06T17:21:01Z</time>
      </trkpt>
      <trkpt lat="43.17946" lon="5.58936">
        <ele>113</ele>
        <time>2020-05-06T17:21:11Z</time>
      </trkpt>
      <trkpt lat="43.17946" lon="5.58944">
        <ele>113</ele>
        <time>2020-05-06T17:21:19Z</time>
      </trkpt>
      <trkpt lat="43.17946" lon="5.5895">
        <ele>113</ele>
        <time>2020-05-06T17:21:25Z</time>
      </trkpt>
      <trkpt lat="43.17945" lon="5.58956">
        <ele>112</ele>
        <time>2020-05-06T17:21:31Z</time>
      </trkpt>
      <trkpt lat="43.17946" lon="5.58964">
        <ele>112</ele>
        <time>2020-05-06T17:21:37Z</time>
      </trkpt>
      <trkpt lat="43.17947" lon="5.58971">
        <ele>112</ele>
        <time>2020-05-06T17:21:43Z</time>
      </trkpt>
      <trkpt lat="43.17945" lon="5.5898">
        <ele>112</ele>
        <time>2020-05-06T17:21:49Z</time>
      </trkpt>
      <trkpt lat="43.17944" lon="5.58988">
        <ele>112</ele>
        <time>2020-05-06T17:21:55Z</time>
      </trkpt>
      <trkpt lat="43.17944" lon="5.58996">
        <ele>111</ele>
        <time>2020-05-06T17:22:01Z</time>
      </trkpt>
      <trkpt lat="43.17945" lon="5.59005">
        <ele>107</ele>
        <time>2020-05-06T17:22:07Z</time>
      </trkpt>
      <trkpt lat="43.17945" lon="5.59013">
        <ele>106</ele>
        <time>2020-05-06T17:22:13Z</time>
      </trkpt>
      <trkpt lat="43.17944" lon="5.59022">
        <ele>106</ele>
        <time>2020-05-06T17:22:19Z</time>
      </trkpt>
      <trkpt lat="43.17943" lon="5.59029">
        <ele>105</ele>
        <time>2020-05-06T17:22:25Z</time>
      </trkpt>
      <trkpt lat="43.17939" lon="5.59034">
        <ele>105</ele>
        <time>2020-05-06T17:22:31Z</time>
      </trkpt>
      <trkpt lat="43.17939" lon="5.59041">
        <ele>105</ele>
        <time>2020-05-06T17:22:37Z</time>
      </trkpt>
      <trkpt lat="43.17939" lon="5.59047">
        <ele>104</ele>
        <time>2020-05-06T17:22:41Z</time>
      </trkpt>
      <trkpt lat="43.17938" lon="5.59056">
        <ele>103</ele>
        <time>2020-05-06T17:22:47Z</time>
      </trkpt>
      <trkpt lat="43.17937" lon="5.59063">
        <ele>103</ele>
        <time>2020-05-06T17:22:53Z</time>
      </trkpt>
      <trkpt lat="43.17933" lon="5.59067">
        <ele>103</ele>
        <time>2020-05-06T17:22:59Z</time>
      </trkpt>
      <trkpt lat="43.1793" lon="5.59072">
        <ele>102</ele>
        <time>2020-05-06T17:23:05Z</time>
      </trkpt>
      <trkpt lat="43.17927" lon="5.59078">
        <ele>102</ele>
        <time>2020-05-06T17:23:11Z</time>
      </trkpt>
      <trkpt lat="43.17926" lon="5.59086">
        <ele>99</ele>
        <time>2020-05-06T17:23:17Z</time>
      </trkpt>
      <trkpt lat="43.17926" lon="5.59093">
        <ele>98</ele>
        <time>2020-05-06T17:23:23Z</time>
      </trkpt>
      <trkpt lat="43.17925" lon="5.591">
        <ele>97</ele>
        <time>2020-05-06T17:23:29Z</time>
      </trkpt>
    </trkseg>
  </trk>
</gpx>